sensor_id;sensor_type;location;lat;lon;timestamp;temperature;humidity
24468;DHT22;12634;50.852;5.676;2022-09-20T00:01:27;11.80;99.90
24468;DHT22;12634;50.852;5.676;2022-09-20T00:03:58;11.70;99.90
24468;DHT22;12634;50.852;5.676;2022-09-20T00:06:27;11.60;99.90
24468;DHT22;12634;50.852;5.676;2022-09-20T00:08:55;11.60;99.90
24468;DHT22;12634;50.852;5.676;2022-09-20T00:11:25;11.60;99.90
24468;DHT22;12634;50.852;5.676;2022-09-20T00:13:55;11.70;99.90
24468;DHT22;12634;50.852;5.676;2022-09-20T00:16:25;11.70;99.90
24468;DHT22;12634;50.852;5.676;2022-09-20T00:18:54;11.70;99.90
24468;DHT22;12634;50.852;5.676;2022-09-20T00:21:24;11.70;99.90
24468;DHT22;12634;50.852;5.676;2022-09-20T00:23:52;11.70;99.90
24468;DHT22;12634;50.852;5.676;2022-09-20T00:26:20;11.70;99.90
24468;DHT22;12634;50.852;5.676;2022-09-20T00:28:49;11.70;99.90
24468;DHT22;12634;50.852;5.676;2022-09-20T00:31:17;11.60;99.90
24468;DHT22;12634;50.852;5.676;2022-09-20T00:33:44;11.50;99.90
24468;DHT22;12634;50.852;5.676;2022-09-20T00:36:29;11.50;99.90
24468;DHT22;12634;50.852;5.676;2022-09-20T00:38:58;11.40;99.90
24468;DHT22;12634;50.852;5.676;2022-09-20T00:41:26;11.50;99.90
24468;DHT22;12634;50.852;5.676;2022-09-20T00:43:55;11.50;99.90
24468;DHT22;12634;50.852;5.676;2022-09-20T00:46:26;11.40;99.90
24468;DHT22;12634;50.852;5.676;2022-09-20T00:48:57;11.50;99.90
24468;DHT22;12634;50.852;5.676;2022-09-20T00:51:28;11.50;99.90
24468;DHT22;12634;50.852;5.676;2022-09-20T00:53:59;11.40;99.90
24468;DHT22;12634;50.852;5.676;2022-09-20T00:56:31;11.40;99.90
24468;DHT22;12634;50.852;5.676;2022-09-20T00:59:05;11.30;99.90
24468;DHT22;12634;50.852;5.676;2022-09-20T01:01:35;11.20;99.90
24468;DHT22;12634;50.852;5.676;2022-09-20T01:04:02;11.30;99.90
24468;DHT22;12634;50.852;5.676;2022-09-20T01:06:31;11.30;99.90
24468;DHT22;12634;50.852;5.676;2022-09-20T01:09:01;11.30;99.90
24468;DHT22;12634;50.852;5.676;2022-09-20T01:11:29;11.30;99.90
24468;DHT22;12634;50.852;5.676;2022-09-20T01:13:57;11.40;99.90
24468;DHT22;12634;50.852;5.676;2022-09-20T01:16:26;11.40;99.90
24468;DHT22;12634;50.852;5.676;2022-09-20T01:18:56;11.40;99.90
24468;DHT22;12634;50.852;5.676;2022-09-20T01:21:25;11.40;99.90
24468;DHT22;12634;50.852;5.676;2022-09-20T01:23:58;11.50;99.90
24468;DHT22;12634;50.852;5.676;2022-09-20T01:26:36;11.40;99.90
24468;DHT22;12634;50.852;5.676;2022-09-20T01:29:16;11.40;99.90
24468;DHT22;12634;50.852;5.676;2022-09-20T01:31:51;11.30;99.90
24468;DHT22;12634;50.852;5.676;2022-09-20T01:34:25;11.20;99.90
24468;DHT22;12634;50.852;5.676;2022-09-20T01:37:02;11.30;99.90
24468;DHT22;12634;50.852;5.676;2022-09-20T01:39:37;11.20;99.90
24468;DHT22;12634;50.852;5.676;2022-09-20T01:42:10;11.20;99.90
24468;DHT22;12634;50.852;5.676;2022-09-20T01:44:47;11.20;99.90
24468;DHT22;12634;50.852;5.676;2022-09-20T01:47:27;11.20;99.90
24468;DHT22;12634;50.852;5.676;2022-09-20T01:50:02;11.30;99.90
24468;DHT22;12634;50.852;5.676;2022-09-20T01:53:14;11.20;99.90
24468;DHT22;12634;50.852;5.676;2022-09-20T01:56:17;11.20;99.90
24468;DHT22;12634;50.852;5.676;2022-09-20T01:59:12;11.20;99.90
24468;DHT22;12634;50.852;5.676;2022-09-20T02:02:09;11.20;99.90
24468;DHT22;12634;50.852;5.676;2022-09-20T02:05:10;11.30;99.90
24468;DHT22;12634;50.852;5.676;2022-09-20T02:08:02;11.30;99.90
24468;DHT22;12634;50.852;5.676;2022-09-20T02:10:57;11.30;99.90
24468;DHT22;12634;50.852;5.676;2022-09-20T02:13:31;11.30;99.90
24468;DHT22;12634;50.852;5.676;2022-09-20T02:16:29;11.30;99.90
24468;DHT22;12634;50.852;5.676;2022-09-20T02:19:32;11.30;99.90
24468;DHT22;12634;50.852;5.676;2022-09-20T02:22:12;11.30;99.90
24468;DHT22;12634;50.852;5.676;2022-09-20T02:24:52;11.30;99.90
24468;DHT22;12634;50.852;5.676;2022-09-20T02:27:29;11.30;99.90
24468;DHT22;12634;50.852;5.676;2022-09-20T02:30:03;11.30;99.90
24468;DHT22;12634;50.852;5.676;2022-09-20T02:32:50;11.30;99.90
24468;DHT22;12634;50.852;5.676;2022-09-20T02:38:34;11.30;99.90
24468;DHT22;12634;50.852;5.676;2022-09-20T02:41:24;11.30;99.90
24468;DHT22;12634;50.852;5.676;2022-09-20T02:43:59;11.30;99.90
24468;DHT22;12634;50.852;5.676;2022-09-20T02:46:32;11.40;99.90
24468;DHT22;12634;50.852;5.676;2022-09-20T02:49:03;11.30;99.90
24468;DHT22;12634;50.852;5.676;2022-09-20T02:51:39;11.40;99.90
24468;DHT22;12634;50.852;5.676;2022-09-20T02:54:17;11.40;99.90
24468;DHT22;12634;50.852;5.676;2022-09-20T02:56:52;11.30;99.90
24468;DHT22;12634;50.852;5.676;2022-09-20T02:59:28;11.30;99.90
24468;DHT22;12634;50.852;5.676;2022-09-20T03:02:05;11.20;99.90
24468;DHT22;12634;50.852;5.676;2022-09-20T03:04:44;11.20;99.90
24468;DHT22;12634;50.852;5.676;2022-09-20T03:07:21;11.20;99.90
24468;DHT22;12634;50.852;5.676;2022-09-20T03:10:00;11.20;99.90
24468;DHT22;12634;50.852;5.676;2022-09-20T03:12:39;11.10;99.90
24468;DHT22;12634;50.852;5.676;2022-09-20T03:15:18;11.10;99.90
24468;DHT22;12634;50.852;5.676;2022-09-20T03:17:54;11.10;99.90
24468;DHT22;12634;50.852;5.676;2022-09-20T03:20:32;11.20;99.90
24468;DHT22;12634;50.852;5.676;2022-09-20T03:23:13;11.10;99.90
24468;DHT22;12634;50.852;5.676;2022-09-20T03:25:52;11.10;99.90
24468;DHT22;12634;50.852;5.676;2022-09-20T03:28:36;11.20;99.90
24468;DHT22;12634;50.852;5.676;2022-09-20T03:31:18;11.20;99.90
24468;DHT22;12634;50.852;5.676;2022-09-20T03:33:57;11.20;99.90
24468;DHT22;12634;50.852;5.676;2022-09-20T03:36:40;11.20;99.90
24468;DHT22;12634;50.852;5.676;2022-09-20T03:39:25;11.20;99.90
24468;DHT22;12634;50.852;5.676;2022-09-20T03:42:13;11.30;99.90
24468;DHT22;12634;50.852;5.676;2022-09-20T03:48:20;11.20;99.90
24468;DHT22;12634;50.852;5.676;2022-09-20T03:51:03;11.20;99.90
24468;DHT22;12634;50.852;5.676;2022-09-20T03:53:53;11.20;99.90
24468;DHT22;12634;50.852;5.676;2022-09-20T03:59:25;11.10;99.90
24468;DHT22;12634;50.852;5.676;2022-09-20T04:02:14;11.20;99.90
24468;DHT22;12634;50.852;5.676;2022-09-20T04:04:51;11.10;99.90
24468;DHT22;12634;50.852;5.676;2022-09-20T04:07:23;11.10;99.90
24468;DHT22;12634;50.852;5.676;2022-09-20T04:10:23;11.10;99.90
24468;DHT22;12634;50.852;5.676;2022-09-20T04:13:19;11.10;99.90
24468;DHT22;12634;50.852;5.676;2022-09-20T04:16:02;11.10;99.90
24468;DHT22;12634;50.852;5.676;2022-09-20T04:18:33;11.20;99.90
24468;DHT22;12634;50.852;5.676;2022-09-20T04:21:06;11.20;99.90
24468;DHT22;12634;50.852;5.676;2022-09-20T04:23:41;11.10;99.90
24468;DHT22;12634;50.852;5.676;2022-09-20T04:26:11;11.20;99.90
24468;DHT22;12634;50.852;5.676;2022-09-20T04:28:49;11.20;99.90
24468;DHT22;12634;50.852;5.676;2022-09-20T04:31:25;11.20;99.90
24468;DHT22;12634;50.852;5.676;2022-09-20T04:33:56;11.20;99.90
24468;DHT22;12634;50.852;5.676;2022-09-20T04:36:36;11.10;99.90
24468;DHT22;12634;50.852;5.676;2022-09-20T04:39:12;11.10;99.90
24468;DHT22;12634;50.852;5.676;2022-09-20T04:48:11;11.20;99.90
24468;DHT22;12634;50.852;5.676;2022-09-20T04:53:50;11.20;99.90
24468;DHT22;12634;50.852;5.676;2022-09-20T04:56:31;11.20;99.90
24468;DHT22;12634;50.852;5.676;2022-09-20T04:59:09;11.10;99.90
24468;DHT22;12634;50.852;5.676;2022-09-20T05:17:29;11.20;99.90
24468;DHT22;12634;50.852;5.676;2022-09-20T05:20:27;11.20;99.90
24468;DHT22;12634;50.852;5.676;2022-09-20T05:23:36;11.20;99.90
24468;DHT22;12634;50.852;5.676;2022-09-20T05:26:09;11.20;99.90
24468;DHT22;12634;50.852;5.676;2022-09-20T05:28:47;11.10;99.90
24468;DHT22;12634;50.852;5.676;2022-09-20T05:31:23;11.10;99.90
24468;DHT22;12634;50.852;5.676;2022-09-20T05:33:58;11.10;99.90
24468;DHT22;12634;50.852;5.676;2022-09-20T05:36:37;11.10;99.90
24468;DHT22;12634;50.852;5.676;2022-09-20T05:39:20;11.10;99.90
24468;DHT22;12634;50.852;5.676;2022-09-20T05:41:53;11.10;99.90
24468;DHT22;12634;50.852;5.676;2022-09-20T05:44:40;11.20;99.90
24468;DHT22;12634;50.852;5.676;2022-09-20T05:47:17;11.20;99.90
24468;DHT22;12634;50.852;5.676;2022-09-20T05:49:54;11.20;99.90
24468;DHT22;12634;50.852;5.676;2022-09-20T05:52:45;11.20;99.90
24468;DHT22;12634;50.852;5.676;2022-09-20T05:58:27;11.20;99.90
24468;DHT22;12634;50.852;5.676;2022-09-20T06:01:03;11.20;99.90
24468;DHT22;12634;50.852;5.676;2022-09-20T06:03:38;11.30;99.90
24468;DHT22;12634;50.852;5.676;2022-09-20T06:06:12;11.30;99.90
24468;DHT22;12634;50.852;5.676;2022-09-20T06:09:00;11.30;99.90
24468;DHT22;12634;50.852;5.676;2022-09-20T06:12:04;11.30;99.90
24468;DHT22;12634;50.852;5.676;2022-09-20T06:14:45;11.30;99.90
24468;DHT22;12634;50.852;5.676;2022-09-20T06:17:23;11.40;99.90
24468;DHT22;12634;50.852;5.676;2022-09-20T06:20:02;11.40;99.90
24468;DHT22;12634;50.852;5.676;2022-09-20T06:22:33;11.50;99.90
24468;DHT22;12634;50.852;5.676;2022-09-20T06:25:13;11.50;99.90
24468;DHT22;12634;50.852;5.676;2022-09-20T06:27:45;11.50;99.90
24468;DHT22;12634;50.852;5.676;2022-09-20T06:30:17;11.50;99.90
24468;DHT22;12634;50.852;5.676;2022-09-20T06:32:57;11.60;99.90
24468;DHT22;12634;50.852;5.676;2022-09-20T06:35:30;11.60;99.90
24468;DHT22;12634;50.852;5.676;2022-09-20T06:38:10;11.60;99.90
24468;DHT22;12634;50.852;5.676;2022-09-20T06:41:00;11.70;99.90
24468;DHT22;12634;50.852;5.676;2022-09-20T06:43:48;11.70;99.90
24468;DHT22;12634;50.852;5.676;2022-09-20T06:46:15;11.70;99.90
24468;DHT22;12634;50.852;5.676;2022-09-20T06:48:42;11.70;99.90
24468;DHT22;12634;50.852;5.676;2022-09-20T06:51:09;11.80;99.90
24468;DHT22;12634;50.852;5.676;2022-09-20T06:53:39;11.80;99.90
24468;DHT22;12634;50.852;5.676;2022-09-20T06:56:08;11.90;99.90
24468;DHT22;12634;50.852;5.676;2022-09-20T06:58:39;12.00;99.90
24468;DHT22;12634;50.852;5.676;2022-09-20T07:01:07;12.20;99.90
24468;DHT22;12634;50.852;5.676;2022-09-20T07:03:34;13.00;99.90
24468;DHT22;12634;50.852;5.676;2022-09-20T07:06:02;13.50;99.90
24468;DHT22;12634;50.852;5.676;2022-09-20T07:08:30;14.30;99.90
24468;DHT22;12634;50.852;5.676;2022-09-20T07:11:02;14.80;99.90
24468;DHT22;12634;50.852;5.676;2022-09-20T07:13:29;15.20;99.90
24468;DHT22;12634;50.852;5.676;2022-09-20T07:15:59;14.90;99.90
24468;DHT22;12634;50.852;5.676;2022-09-20T07:18:29;14.00;99.90
24468;DHT22;12634;50.852;5.676;2022-09-20T07:20:58;13.70;99.90
24468;DHT22;12634;50.852;5.676;2022-09-20T07:23:25;13.40;99.90
24468;DHT22;12634;50.852;5.676;2022-09-20T07:25:53;13.40;99.90
24468;DHT22;12634;50.852;5.676;2022-09-20T07:28:24;13.50;99.90
24468;DHT22;12634;50.852;5.676;2022-09-20T07:30:51;13.50;99.90
24468;DHT22;12634;50.852;5.676;2022-09-20T07:33:18;13.30;99.90
24468;DHT22;12634;50.852;5.676;2022-09-20T07:35:48;13.30;99.90
24468;DHT22;12634;50.852;5.676;2022-09-20T07:38:15;13.30;99.90
24468;DHT22;12634;50.852;5.676;2022-09-20T07:40:43;13.40;99.90
24468;DHT22;12634;50.852;5.676;2022-09-20T07:43:11;13.60;99.90
24468;DHT22;12634;50.852;5.676;2022-09-20T07:45:38;13.70;99.90
24468;DHT22;12634;50.852;5.676;2022-09-20T07:48:07;13.90;99.90
24468;DHT22;12634;50.852;5.676;2022-09-20T07:50:34;13.70;99.90
24468;DHT22;12634;50.852;5.676;2022-09-20T07:53:03;13.80;99.90
24468;DHT22;12634;50.852;5.676;2022-09-20T07:55:30;14.00;99.90
24468;DHT22;12634;50.852;5.676;2022-09-20T07:57:59;14.10;99.90
24468;DHT22;12634;50.852;5.676;2022-09-20T08:00:26;13.90;99.90
24468;DHT22;12634;50.852;5.676;2022-09-20T08:02:57;13.60;99.90
24468;DHT22;12634;50.852;5.676;2022-09-20T08:05:26;13.50;99.90
24468;DHT22;12634;50.852;5.676;2022-09-20T08:07:54;13.80;99.90
24468;DHT22;12634;50.852;5.676;2022-09-20T08:10:23;14.10;99.90
24468;DHT22;12634;50.852;5.676;2022-09-20T08:12:51;14.40;99.90
24468;DHT22;12634;50.852;5.676;2022-09-20T08:15:18;14.70;99.90
24468;DHT22;12634;50.852;5.676;2022-09-20T08:17:46;14.80;99.90
24468;DHT22;12634;50.852;5.676;2022-09-20T08:20:14;15.00;99.90
